Time;durP1;ratioP1;P1;durP2;ratioP2;P2;SDS_P1;SDS_P2;PMS_P1;PMS_P2;Temp;Humidity;BMP_temperature;BMP_pressure;BME280_temperature;BME280_humidity;BME280_pressure;Samples;Min_cycle;Max_cycle;Signal;HPM_P1;HPM_P2
2022/12/09 00:01:20;;;;;;;17.03;12.67;;;3.90;99.90;;;;;;5094633;28;20234;-85
2022/12/09 00:03:47;;;;;;;20.83;13.30;;;3.90;99.90;;;;;;5095557;28;20167;-84
2022/12/09 00:06:17;;;;;;;20.40;12.87;;;3.90;99.90;;;;;;5094443;28;20179;-85
2022/12/09 00:08:43;;;;;;;20.10;14.20;;;3.90;99.90;;;;;;5095388;28;20224;-86
2022/12/09 00:11:09;;;;;;;21.67;13.07;;;3.90;99.90;;;;;;5095585;28;20645;-85
2022/12/09 00:13:35;;;;;;;19.13;13.00;;;3.90;99.90;;;;;;5095332;28;20208;-83
2022/12/09 00:16:10;;;;;;;16.00;10.77;;;4.00;99.90;;;;;;5115178;28;20278;-86
2022/12/09 00:18:36;;;;;;;14.83;9.83;;;4.00;99.90;;;;;;5115679;28;20154;-84
2022/12/09 00:21:26;;;;;;;16.60;10.50;;;4.00;99.90;;;;;;5115340;28;20198;-83
2022/12/09 00:23:54;;;;;;;13.10;9.33;;;3.90;99.90;;;;;;5109358;28;20303;-81
2022/12/09 00:26:21;;;;;;;14.03;9.63;;;4.00;99.90;;;;;;5092736;28;20176;-81
2022/12/09 00:28:49;;;;;;;21.40;11.63;;;3.90;99.90;;;;;;5096811;28;20175;-79
2022/12/09 00:31:18;;;;;;;21.63;11.83;;;3.90;99.90;;;;;;5096669;28;20177;-81
2022/12/09 00:33:45;;;;;;;19.57;11.43;;;3.90;99.90;;;;;;5103447;28;20322;-80
2022/12/09 00:36:18;;;;;;;17.53;10.47;;;3.90;99.90;;;;;;5094451;28;20692;-85
2022/12/09 00:38:44;;;;;;;16.17;9.93;;;3.90;99.90;;;;;;5094481;28;20657;-80
2022/12/09 00:41:11;;;;;;;14.87;9.87;;;4.00;99.90;;;;;;5106675;28;20202;-81
2022/12/09 00:43:37;;;;;;;16.03;10.13;;;3.90;99.90;;;;;;5101324;28;20179;-78
2022/12/09 00:46:03;;;;;;;14.60;10.00;;;3.90;99.90;;;;;;5093667;28;20205;-80
2022/12/09 00:48:29;;;;;;;15.87;10.40;;;4.00;99.90;;;;;;5092668;28;20175;-79
2022/12/09 00:50:55;;;;;;;13.50;9.40;;;4.00;99.90;;;;;;5073783;28;20179;-78
2022/12/09 00:53:21;;;;;;;16.43;9.67;;;4.00;99.90;;;;;;5073805;28;20171;-81
2022/12/09 00:55:47;;;;;;;15.97;10.47;;;4.10;99.90;;;;;;5073632;28;20183;-80
2022/12/09 00:58:13;;;;;;;13.03;9.10;;;4.10;99.90;;;;;;5098708;28;20252;-81
2022/12/09 01:00:39;;;;;;;15.03;10.33;;;4.10;99.90;;;;;;5101046;28;20228;-79
2022/12/09 01:03:05;;;;;;;13.73;9.37;;;4.10;99.90;;;;;;5094530;28;20324;-79
2022/12/09 01:05:34;;;;;;;15.57;9.47;;;4.10;99.90;;;;;;5094250;28;20198;-86
2022/12/09 01:08:00;;;;;;;14.83;9.63;;;4.10;99.90;;;;;;5094633;28;20221;-80
2022/12/09 01:10:25;;;;;;;14.67;9.90;;;4.00;99.90;;;;;;5094871;28;20162;-81
2022/12/09 01:12:51;;;;;;;12.90;9.73;;;4.00;99.90;;;;;;5096184;28;20170;-83
2022/12/09 01:15:17;;;;;;;13.23;8.90;;;4.00;99.90;;;;;;5109334;28;20174;-83
2022/12/09 01:17:43;;;;;;;15.87;9.83;;;3.90;99.90;;;;;;5118336;28;20177;-78
2022/12/09 01:20:09;;;;;;;13.03;9.47;;;4.00;99.90;;;;;;5118109;28;20297;-79
2022/12/09 01:22:36;;;;;;;12.97;8.97;;;3.90;99.90;;;;;;5114445;28;20179;-80
2022/12/09 01:25:02;;;;;;;14.63;9.93;;;3.90;99.90;;;;;;5116066;28;20615;-81
2022/12/09 01:27:31;;;;;;;12.50;8.93;;;3.90;99.90;;;;;;5118191;28;20645;-80
2022/12/09 01:29:57;;;;;;;14.93;9.40;;;3.80;99.90;;;;;;5112965;28;20219;-82
2022/12/09 01:32:23;;;;;;;16.27;10.03;;;3.80;99.90;;;;;;5112908;28;20181;-85
2022/12/09 01:34:49;;;;;;;14.87;9.50;;;3.80;99.90;;;;;;5100979;28;20638;-78
2022/12/09 01:37:15;;;;;;;14.20;9.30;;;3.80;99.90;;;;;;5092372;28;20213;-81
2022/12/09 01:39:41;;;;;;;13.03;8.70;;;3.80;99.90;;;;;;5093462;28;20177;-79
2022/12/09 01:42:21;;;;;;;13.97;9.70;;;3.70;99.90;;;;;;5092101;28;20210;-82
2022/12/09 01:45:15;;;;;;;14.00;9.30;;;3.70;99.90;;;;;;5085752;28;20174;-82
2022/12/09 01:47:41;;;;;;;14.70;9.87;;;3.70;99.90;;;;;;5073305;28;20623;-79
2022/12/09 01:50:07;;;;;;;14.60;9.83;;;3.60;99.90;;;;;;5073592;28;20217;-86
2022/12/09 01:52:33;;;;;;;13.90;9.03;;;3.60;99.90;;;;;;5073902;28;20595;-83
2022/12/09 01:54:58;;;;;;;14.30;9.10;;;3.60;99.90;;;;;;5073678;28;20179;-85
2022/12/09 01:57:24;;;;;;;14.97;9.40;;;3.50;99.90;;;;;;5073596;28;20185;-85
2022/12/09 01:59:51;;;;;;;14.17;8.83;;;3.50;99.90;;;;;;5107731;28;20188;-84
2022/12/09 02:02:19;;;;;;;10.83;8.73;;;3.60;99.90;;;;;;5083725;28;20220;-86
2022/12/09 02:04:46;;;;;;;12.20;8.47;;;3.60;99.90;;;;;;5073179;28;20206;-84
2022/12/09 02:07:12;;;;;;;12.70;8.47;;;3.50;99.90;;;;;;5092459;28;20215;-82
2022/12/09 02:09:39;;;;;;;14.10;9.27;;;3.60;99.90;;;;;;5092639;28;20213;-84
2022/12/09 02:12:15;;;;;;;13.93;9.90;;;3.60;99.90;;;;;;5093856;28;20158;-83
2022/12/09 02:14:56;;;;;;;13.53;9.27;;;3.60;99.90;;;;;;5102573;28;20179;-81
2022/12/09 02:17:37;;;;;;;17.13;9.90;;;3.60;99.90;;;;;;5112476;28;20202;-83
2022/12/09 02:20:22;;;;;;;13.93;9.23;;;3.60;99.90;;;;;;5114002;28;20158;-84
2022/12/09 02:23:16;;;;;;;13.27;8.50;;;3.60;99.90;;;;;;5114174;28;20164;-82
2022/12/09 02:25:55;;;;;;;17.23;9.60;;;3.70;99.90;;;;;;5108643;28;20241;-80
2022/12/09 02:28:42;;;;;;;12.30;9.33;;;3.70;99.90;;;;;;5119404;28;20162;-83
2022/12/09 02:31:26;;;;;;;13.37;8.97;;;3.70;99.90;;;;;;5118515;28;20157;-81
2022/12/09 02:34:11;;;;;;;11.97;9.00;;;3.70;99.90;;;;;;5115903;28;20199;-82
2022/12/09 02:36:45;;;;;;;11.27;8.73;;;3.70;99.90;;;;;;5115057;28;20162;-79
2022/12/09 02:39:10;;;;;;;13.63;9.50;;;3.70;99.90;;;;;;5114219;28;20190;-79
2022/12/09 02:41:40;;;;;;;11.97;8.63;;;3.90;99.90;;;;;;5113103;28;20256;-80
2022/12/09 02:44:14;;;;;;;15.97;9.70;;;3.90;99.90;;;;;;5113065;28;20204;-79
2022/12/09 02:46:46;;;;;;;13.07;8.97;;;3.80;99.90;;;;;;5114973;28;20162;-84
2022/12/09 02:49:13;;;;;;;13.43;9.57;;;3.70;99.90;;;;;;5114070;28;20615;-84
2022/12/09 02:51:41;;;;;;;13.70;8.57;;;3.70;99.90;;;;;;5112080;28;20227;-81
2022/12/09 02:54:16;;;;;;;13.87;9.20;;;3.80;99.90;;;;;;5113491;28;20188;-79
2022/12/09 02:56:53;;;;;;;11.03;8.27;;;3.70;99.90;;;;;;5112912;28;20155;-78
2022/12/09 02:59:19;;;;;;;13.53;9.43;;;3.80;99.90;;;;;;5112969;28;20170;-79
2022/12/09 03:02:21;;;;;;;13.23;9.23;;;3.80;99.90;;;;;;5114302;28;20308;-82
2022/12/09 03:05:00;;;;;;;14.20;9.40;;;3.90;99.90;;;;;;5097719;28;20659;-83
2022/12/09 03:07:37;;;;;;;12.67;8.83;;;3.90;99.90;;;;;;5122598;28;20154;-82
2022/12/09 03:10:30;;;;;;;14.93;9.03;;;3.80;99.90;;;;;;5123469;28;20557;-83
2022/12/09 03:13:15;;;;;;;11.97;7.73;;;3.80;99.90;;;;;;5120538;28;20520;-84
2022/12/09 03:15:48;;;;;;;12.80;8.87;;;3.80;99.90;;;;;;5099907;28;20700;-84
2022/12/09 03:18:17;;;;;;;12.93;8.33;;;3.80;99.90;;;;;;5097839;28;20174;-83
2022/12/09 03:20:46;;;;;;;13.07;8.80;;;3.80;99.90;;;;;;5096013;28;20661;-81
2022/12/09 03:23:15;;;;;;;10.87;8.07;;;3.80;99.90;;;;;;5096263;28;20174;-84
2022/12/09 03:25:51;;;;;;;13.20;8.83;;;3.80;99.90;;;;;;5096155;28;20218;-85
2022/12/09 03:28:29;;;;;;;12.47;8.53;;;3.80;99.90;;;;;;5094828;28;20224;-84
2022/12/09 03:31:00;;;;;;;13.43;8.60;;;3.80;99.90;;;;;;5096001;28;20161;-84
2022/12/09 03:33:30;;;;;;;12.97;8.83;;;3.90;99.90;;;;;;5096046;28;20159;-85
2022/12/09 03:36:01;;;;;;;13.43;9.10;;;3.90;99.90;;;;;;5096068;28;20174;-84
2022/12/09 03:38:33;;;;;;;11.83;8.30;;;3.90;99.90;;;;;;5095966;28;20155;-82
2022/12/09 03:41:09;;;;;;;15.27;9.07;;;3.90;99.90;;;;;;5096437;28;20719;-85
2022/12/09 03:43:40;;;;;;;16.57;9.53;;;3.90;99.90;;;;;;5098606;28;20685;-84
2022/12/09 03:46:06;;;;;;;13.70;8.67;;;3.90;99.90;;;;;;5095823;28;20159;-87
2022/12/09 03:48:32;;;;;;;12.63;9.37;;;3.80;99.90;;;;;;5096243;28;20167;-84
2022/12/09 03:51:26;;;;;;;13.37;9.07;;;3.80;99.90;;;;;;5095885;28;20175;-84
2022/12/09 03:54:15;;;;;;;12.20;9.27;;;3.80;99.90;;;;;;5095722;28;20171;-84
2022/12/09 03:56:46;;;;;;;12.90;8.73;;;3.80;99.90;;;;;;5095305;28;20243;-86
2022/12/09 03:59:13;;;;;;;12.93;8.27;;;3.80;99.90;;;;;;5095435;28;20650;-81
2022/12/09 04:01:41;;;;;;;14.03;9.03;;;3.80;99.90;;;;;;5094898;28;20322;-80
2022/12/09 04:04:07;;;;;;;14.30;9.10;;;3.80;99.90;;;;;;5095301;28;20178;-80
2022/12/09 04:06:34;;;;;;;12.37;8.83;;;3.70;99.90;;;;;;5095317;28;20760;-83
2022/12/09 04:09:00;;;;;;;12.77;9.20;;;3.60;99.90;;;;;;5093872;28;20188;-84
2022/12/09 04:11:26;;;;;;;16.63;9.57;;;3.60;99.90;;;;;;5094069;28;20525;-81
2022/12/09 04:13:52;;;;;;;11.77;8.63;;;3.70;99.90;;;;;;5097266;28;20226;-80
2022/12/09 04:16:18;;;;;;;12.23;8.80;;;3.70;99.90;;;;;;5115590;28;20570;-80
2022/12/09 04:18:43;;;;;;;13.47;8.83;;;3.70;99.90;;;;;;5115228;28;20181;-81
2022/12/09 04:21:12;;;;;;;14.93;9.77;;;3.80;99.90;;;;;;5118998;28;20235;-81
2022/12/09 04:23:38;;;;;;;14.47;9.57;;;3.80;99.90;;;;;;5115048;28;20178;-78
2022/12/09 04:26:05;;;;;;;13.30;9.33;;;3.80;99.90;;;;;;5115783;28;20198;-83
2022/12/09 04:28:31;;;;;;;14.03;9.53;;;3.80;99.90;;;;;;5114045;28;20182;-79
2022/12/09 04:30:57;;;;;;;12.50;9.37;;;3.80;99.90;;;;;;5114967;28;20220;-79
2022/12/09 04:33:23;;;;;;;14.73;9.50;;;3.80;99.90;;;;;;5115238;28;20620;-81
2022/12/09 04:35:49;;;;;;;14.23;9.20;;;3.80;99.90;;;;;;5114988;27;20174;-82
2022/12/09 04:38:15;;;;;;;17.03;9.90;;;3.80;99.90;;;;;;5115316;28;20189;-81
2022/12/09 04:40:41;;;;;;;13.97;9.23;;;3.80;99.90;;;;;;5113454;28;20216;-82
2022/12/09 04:43:07;;;;;;;12.40;8.93;;;3.90;99.90;;;;;;5115459;28;20170;-82
2022/12/09 04:45:33;;;;;;;15.30;9.73;;;3.80;99.90;;;;;;5116722;28;20178;-80
2022/12/09 04:47:59;;;;;;;15.37;9.97;;;3.80;99.90;;;;;;5126106;28;20166;-83
2022/12/09 04:50:25;;;;;;;13.57;9.10;;;3.80;99.90;;;;;;5117441;28;20176;-79
2022/12/09 04:52:51;;;;;;;12.33;8.87;;;3.80;99.90;;;;;;5115727;28;20174;-81
2022/12/09 04:55:17;;;;;;;14.43;9.77;;;3.70;99.90;;;;;;5120621;28;20180;-81
2022/12/09 04:57:42;;;;;;;14.83;10.13;;;3.70;99.90;;;;;;5116010;28;20923;-81
2022/12/09 05:00:09;;;;;;;13.00;9.57;;;3.60;99.90;;;;;;5116710;28;20217;-79
2022/12/09 05:02:35;;;;;;;16.63;10.53;;;3.60;99.90;;;;;;5117545;28;20201;-81
2022/12/09 05:05:01;;;;;;;14.53;9.80;;;3.70;99.90;;;;;;5114769;28;20162;-82
2022/12/09 05:07:29;;;;;;;16.27;9.90;;;3.70;99.90;;;;;;5114539;28;20223;-85
2022/12/09 05:09:59;;;;;;;17.23;9.80;;;3.70;99.90;;;;;;5114491;27;20224;-84
2022/12/09 05:12:25;;;;;;;15.63;10.37;;;3.80;99.90;;;;;;5113491;28;20174;-85
2022/12/09 05:14:51;;;;;;;14.20;10.43;;;3.70;99.90;;;;;;5108274;28;20181;-84
2022/12/09 05:17:17;;;;;;;14.93;10.07;;;3.70;99.90;;;;;;5097746;28;20288;-84
2022/12/09 05:19:42;;;;;;;14.40;10.20;;;3.80;99.90;;;;;;5094372;28;20634;-83
2022/12/09 05:22:08;;;;;;;16.83;10.40;;;3.80;99.90;;;;;;5094126;28;20217;-83
2022/12/09 05:24:34;;;;;;;16.90;10.40;;;3.80;99.90;;;;;;5093899;28;20193;-83
2022/12/09 05:27:00;;;;;;;14.63;9.53;;;3.80;99.90;;;;;;5092750;28;20178;-83
2022/12/09 05:29:26;;;;;;;16.20;10.07;;;3.80;99.90;;;;;;5092440;28;20257;-84
2022/12/09 05:31:51;;;;;;;15.23;9.97;;;3.70;99.90;;;;;;5093175;28;20170;-80
2022/12/09 05:34:17;;;;;;;19.00;10.40;;;3.70;99.90;;;;;;5100305;28;20170;-84
2022/12/09 05:36:43;;;;;;;16.30;10.40;;;3.70;99.90;;;;;;5093180;28;20566;-85
2022/12/09 05:39:09;;;;;;;16.37;10.50;;;3.80;99.90;;;;;;5094299;28;20170;-83
2022/12/09 05:41:35;;;;;;;13.23;9.83;;;3.80;99.90;;;;;;5093226;28;20206;-78
2022/12/09 05:44:01;;;;;;;15.47;10.80;;;3.80;99.90;;;;;;5093275;28;20637;-81
2022/12/09 05:46:26;;;;;;;17.67;10.70;;;3.90;99.90;;;;;;5093089;28;20249;-80
2022/12/09 05:48:52;;;;;;;19.03;10.13;;;3.90;99.90;;;;;;5094376;28;20185;-83
2022/12/09 05:51:27;;;;;;;19.50;11.07;;;3.90;99.90;;;;;;5099115;28;20583;-83
2022/12/09 05:53:54;;;;;;;17.00;11.00;;;3.90;99.90;;;;;;5095633;28;20170;-85
2022/12/09 05:56:22;;;;;;;16.80;10.40;;;3.80;99.90;;;;;;5093958;28;20178;-82
2022/12/09 05:58:49;;;;;;;14.23;9.67;;;3.80;99.90;;;;;;5093527;28;20231;-86
2022/12/09 06:01:16;;;;;;;15.73;11.23;;;3.80;99.90;;;;;;5093521;28;20233;-85
2022/12/09 06:03:42;;;;;;;16.53;11.20;;;3.80;99.90;;;;;;5093794;28;20571;-86
2022/12/09 06:06:13;;;;;;;16.50;10.27;;;3.80;99.90;;;;;;5093422;28;20167;-85
2022/12/09 06:08:40;;;;;;;16.73;11.20;;;3.70;99.90;;;;;;5093653;28;20233;-84
2022/12/09 06:11:15;;;;;;;14.93;9.93;;;3.80;99.90;;;;;;5093451;28;21018;-80
2022/12/09 06:13:41;;;;;;;15.47;10.63;;;3.80;99.90;;;;;;5093166;28;20177;-82
2022/12/09 06:16:08;;;;;;;16.90;10.43;;;3.80;99.90;;;;;;5112330;28;20265;-84
2022/12/09 06:18:34;;;;;;;17.27;10.87;;;3.80;99.90;;;;;;5113514;28;20173;-79
2022/12/09 06:21:07;;;;;;;16.23;11.07;;;3.70;99.90;;;;;;5112956;28;20207;-79
2022/12/09 06:23:35;;;;;;;14.80;11.00;;;3.70;99.90;;;;;;5113164;28;20171;-80
2022/12/09 06:26:01;;;;;;;17.13;10.87;;;3.80;99.90;;;;;;5116394;28;20165;-80
2022/12/09 06:28:27;;;;;;;17.70;10.17;;;3.70;99.90;;;;;;5116373;28;20193;-80
2022/12/09 06:30:53;;;;;;;15.23;10.50;;;3.80;99.90;;;;;;5113236;28;20201;-83
2022/12/09 06:33:19;;;;;;;18.53;12.33;;;3.80;99.90;;;;;;5112619;28;20532;-81
2022/12/09 06:35:44;;;;;;;22.63;14.53;;;3.70;99.90;;;;;;5112580;28;20173;-82
2022/12/09 06:38:10;;;;;;;18.77;12.00;;;3.80;99.90;;;;;;5114432;28;20195;-79
2022/12/09 06:40:40;;;;;;;18.93;11.20;;;3.80;99.90;;;;;;5115073;28;20174;-81
2022/12/09 06:43:06;;;;;;;16.90;10.63;;;3.80;99.90;;;;;;5115001;28;20166;-79
2022/12/09 06:45:33;;;;;;;16.37;11.47;;;3.70;99.90;;;;;;5120973;28;20169;-81
2022/12/09 06:47:59;;;;;;;16.30;10.53;;;3.70;99.90;;;;;;5119099;28;20174;-78
2022/12/09 06:50:25;;;;;;;17.60;10.97;;;3.70;99.90;;;;;;5118689;28;20200;-80
2022/12/09 06:52:51;;;;;;;16.83;10.90;;;3.70;99.90;;;;;;5120705;28;20253;-84
2022/12/09 06:55:17;;;;;;;16.13;10.70;;;3.80;99.90;;;;;;5120336;28;20161;-80
2022/12/09 06:57:42;;;;;;;16.70;10.77;;;3.90;99.90;;;;;;5116016;28;20176;-79
2022/12/09 07:00:09;;;;;;;16.30;10.70;;;3.60;99.90;;;;;;5117552;28;20216;-80
2022/12/09 07:02:35;;;;;;;15.80;10.57;;;3.60;99.90;;;;;;5117263;28;20537;-78
2022/12/09 07:05:00;;;;;;;15.43;10.60;;;3.60;99.90;;;;;;5115916;28;20181;-85
2022/12/09 07:07:26;;;;;;;17.30;11.13;;;3.60;99.90;;;;;;5117926;28;20177;-84
2022/12/09 07:09:52;;;;;;;17.10;10.33;;;3.70;99.90;;;;;;5118794;28;20166;-82
2022/12/09 07:12:18;;;;;;;17.10;11.10;;;3.70;99.90;;;;;;5122045;28;20224;-83
2022/12/09 07:14:46;;;;;;;17.57;10.97;;;3.70;99.90;;;;;;5114781;28;20175;-84
2022/12/09 07:17:17;;;;;;;16.77;11.30;;;3.70;99.90;;;;;;5102334;28;20184;-81
2022/12/09 07:19:43;;;;;;;19.93;12.20;;;3.80;99.90;;;;;;5100285;28;20171;-83
2022/12/09 07:22:10;;;;;;;18.33;10.63;;;3.80;99.90;;;;;;5098790;28;20256;-82
2022/12/09 07:24:37;;;;;;;18.83;11.47;;;3.80;99.90;;;;;;5096975;28;20159;-81
2022/12/09 07:27:05;;;;;;;16.67;10.83;;;3.90;99.90;;;;;;5094570;28;20195;-79
2022/12/09 07:29:32;;;;;;;17.03;11.90;;;3.90;99.90;;;;;;5096172;28;20171;-82
2022/12/09 07:31:58;;;;;;;18.37;11.93;;;4.00;99.90;;;;;;5095915;28;20185;-81
2022/12/09 07:34:23;;;;;;;20.27;12.23;;;4.20;99.90;;;;;;5096713;28;20177;-83
2022/12/09 07:36:49;;;;;;;17.60;11.83;;;4.20;99.90;;;;;;5096025;28;20178;-82
2022/12/09 07:39:16;;;;;;;15.63;11.03;;;4.30;99.90;;;;;;5095157;28;20590;-83
2022/12/09 07:41:43;;;;;;;16.73;11.03;;;4.30;99.90;;;;;;5096274;28;20271;-84
2022/12/09 07:44:10;;;;;;;17.00;11.13;;;4.30;99.90;;;;;;5096142;28;20687;-86
2022/12/09 07:46:36;;;;;;;18.63;11.50;;;4.30;99.90;;;;;;5096123;28;20166;-85
2022/12/09 07:49:04;;;;;;;17.47;11.33;;;4.20;99.90;;;;;;5095348;28;20173;-82
2022/12/09 07:51:30;;;;;;;15.20;11.47;;;4.20;99.90;;;;;;5095938;28;20169;-79
2022/12/09 07:53:56;;;;;;;19.73;11.57;;;4.30;99.90;;;;;;5095438;28;20584;-85
2022/12/09 07:56:23;;;;;;;16.27;11.07;;;4.30;99.90;;;;;;5096638;28;20230;-80
2022/12/09 07:58:52;;;;;;;17.27;11.40;;;4.30;99.90;;;;;;5099497;28;20167;-82
2022/12/09 08:01:23;;;;;;;18.30;11.87;;;4.40;99.90;;;;;;5096041;28;20305;-80
2022/12/09 08:03:49;;;;;;;18.27;12.27;;;4.40;99.90;;;;;;5096355;28;20203;-80
2022/12/09 08:06:17;;;;;;;17.50;11.70;;;4.50;99.90;;;;;;5103366;28;20200;-84
2022/12/09 08:08:43;;;;;;;18.50;11.47;;;4.50;99.90;;;;;;5094768;28;20533;-86
2022/12/09 08:11:12;;;;;;;15.67;10.70;;;4.50;99.90;;;;;;5095764;28;20568;-81
2022/12/09 08:13:38;;;;;;;17.50;11.43;;;4.60;99.90;;;;;;5095803;28;20173;-81
2022/12/09 08:16:05;;;;;;;17.13;10.87;;;4.70;99.90;;;;;;5115866;28;20619;-83
2022/12/09 08:18:32;;;;;;;17.70;10.70;;;4.70;99.90;;;;;;5116380;28;20170;-83
2022/12/09 08:20:59;;;;;;;17.57;12.40;;;4.90;99.90;;;;;;5117261;28;20196;-80
2022/12/09 08:23:25;;;;;;;17.37;11.67;;;4.80;99.90;;;;;;5117844;28;20177;-84
2022/12/09 08:25:54;;;;;;;18.93;12.30;;;4.90;99.90;;;;;;5119825;27;20188;-83
2022/12/09 08:28:21;;;;;;;17.30;11.83;;;4.80;99.90;;;;;;5116235;28;20596;-82
2022/12/09 08:30:48;;;;;;;17.37;11.27;;;4.80;99.90;;;;;;5115407;28;20182;-82
2022/12/09 08:33:14;;;;;;;19.03;11.40;;;4.70;99.90;;;;;;5116967;27;20216;-85
2022/12/09 08:35:40;;;;;;;18.53;12.40;;;4.80;99.90;;;;;;5118138;28;20178;-85
2022/12/09 08:38:06;;;;;;;20.37;13.37;;;4.80;99.90;;;;;;5118346;28;20210;-82
2022/12/09 08:40:32;;;;;;;19.33;13.57;;;4.80;99.90;;;;;;5116346;28;20182;-81
2022/12/09 08:42:57;;;;;;;18.90;12.53;;;4.80;99.90;;;;;;5118117;28;20238;-82
2022/12/09 08:45:23;;;;;;;18.23;12.40;;;4.80;99.90;;;;;;5116152;28;20170;-79
2022/12/09 08:47:49;;;;;;;18.93;12.13;;;4.80;99.90;;;;;;5125436;28;20219;-83
2022/12/09 08:50:16;;;;;;;17.57;12.10;;;4.90;99.90;;;;;;5119738;28;20617;-84
2022/12/09 08:52:41;;;;;;;19.67;12.97;;;4.80;99.90;;;;;;5117109;28;20243;-83
2022/12/09 08:55:08;;;;;;;18.73;11.87;;;4.80;99.90;;;;;;5116445;28;20208;-82
2022/12/09 08:57:34;;;;;;;16.00;11.63;;;4.80;99.90;;;;;;5116130;28;20173;-80
2022/12/09 09:00:01;;;;;;;17.90;11.93;;;4.80;99.90;;;;;;5115174;28;20204;-84
2022/12/09 09:02:27;;;;;;;19.10;12.47;;;4.70;99.90;;;;;;5115473;28;20229;-83
2022/12/09 09:04:52;;;;;;;19.57;12.40;;;4.70;99.90;;;;;;5114907;28;20168;-82
2022/12/09 09:07:18;;;;;;;19.50;12.83;;;4.80;99.90;;;;;;5115650;28;20170;-86
2022/12/09 09:09:44;;;;;;;17.57;11.80;;;4.80;99.90;;;;;;5119152;28;20172;-82
2022/12/09 09:12:10;;;;;;;18.40;13.10;;;4.80;99.90;;;;;;5121835;28;20202;-85
2022/12/09 09:14:36;;;;;;;18.83;12.47;;;4.80;99.90;;;;;;5117486;28;20175;-84
2022/12/09 09:17:02;;;;;;;21.20;13.07;;;4.80;99.90;;;;;;5115125;28;20266;-82
2022/12/09 09:19:28;;;;;;;22.27;12.87;;;4.80;99.90;;;;;;5113768;28;20264;-84
2022/12/09 09:21:54;;;;;;;19.03;12.00;;;4.80;99.90;;;;;;5114169;28;20214;-82
2022/12/09 09:24:23;;;;;;;18.17;12.67;;;4.90;99.90;;;;;;5114622;28;20217;-81
2022/12/09 09:26:50;;;;;;;22.57;13.37;;;4.80;99.90;;;;;;5114138;28;20524;-81
2022/12/09 09:29:17;;;;;;;18.70;12.13;;;4.90;99.90;;;;;;5114965;28;20652;-81
2022/12/09 09:31:46;;;;;;;17.90;12.50;;;4.90;99.90;;;;;;5116447;28;20166;-83
2022/12/09 09:34:15;;;;;;;18.63;12.13;;;4.90;99.90;;;;;;5116427;28;20194;-81
2022/12/09 09:36:43;;;;;;;19.37;12.47;;;4.90;99.90;;;;;;5114525;28;20713;-80
2022/12/09 09:39:09;;;;;;;18.53;11.80;;;4.90;99.90;;;;;;5116081;28;20170;-80
2022/12/09 09:41:50;;;;;;;18.33;12.00;;;4.90;99.90;;;;;;5117491;28;20253;-78
2022/12/09 09:44:31;;;;;;;18.70;12.00;;;4.90;99.90;;;;;;5122982;27;20178;-82
2022/12/09 09:46:59;;;;;;;17.50;12.10;;;5.10;99.90;;;;;;5116478;28;20159;-81
2022/12/09 09:49:25;;;;;;;18.23;11.67;;;5.20;99.90;;;;;;5114530;28;20181;-79
2022/12/09 09:51:51;;;;;;;17.80;10.43;;;5.20;99.90;;;;;;5115352;28;20655;-78
2022/12/09 09:54:17;;;;;;;17.17;11.30;;;5.30;99.90;;;;;;5114192;28;20672;-83
2022/12/09 09:57:09;;;;;;;16.83;11.40;;;5.30;99.90;;;;;;5114049;28;20166;-83
2022/12/09 09:59:44;;;;;;;16.60;11.17;;;5.30;99.90;;;;;;5114340;28;20209;-85
2022/12/09 10:02:10;;;;;;;18.57;11.77;;;5.30;99.90;;;;;;5113790;28;20228;-84
2022/12/09 10:04:56;;;;;;;18.63;11.83;;;5.30;99.90;;;;;;5114269;28;20170;-84
2022/12/09 10:07:53;;;;;;;18.20;11.87;;;5.20;99.90;;;;;;5119168;28;20253;-80
2022/12/09 10:10:42;;;;;;;16.37;12.23;;;5.30;99.90;;;;;;5107358;28;20767;-79
2022/12/09 10:13:49;;;;;;;17.33;11.87;;;5.30;99.90;;;;;;5116911;28;20215;-82
2022/12/09 10:16:29;;;;;;;16.10;10.80;;;5.30;99.90;;;;;;5054508;28;20264;-83
2022/12/09 10:19:02;;;;;;;15.47;10.80;;;5.30;99.90;;;;;;5078152;28;20639;-84
2022/12/09 10:21:30;;;;;;;17.63;11.53;;;5.30;99.90;;;;;;5079375;28;20216;-81
2022/12/09 10:24:10;;;;;;;16.53;11.50;;;5.30;99.90;;;;;;5085343;28;20534;-84
2022/12/09 10:26:37;;;;;;;16.60;11.80;;;5.40;99.90;;;;;;5083603;28;20160;-83
2022/12/09 10:29:22;;;;;;;17.87;11.60;;;5.20;99.90;;;;;;5083052;28;20163;-84
2022/12/09 10:31:48;;;;;;;16.80;12.20;;;5.20;99.90;;;;;;5088235;28;20186;-84
2022/12/09 10:34:14;;;;;;;18.03;11.60;;;5.20;99.90;;;;;;5081350;28;20650;-85
2022/12/09 10:36:44;;;;;;;16.87;11.77;;;5.20;99.90;;;;;;5088264;28;20176;-86
2022/12/09 10:39:20;;;;;;;17.00;10.63;;;5.10;99.90;;;;;;5083334;28;20171;-86
2022/12/09 10:44:41;;;;;;;17.60;11.83;;;5.00;99.90;;;;;;5082525;28;20190;-85
2022/12/09 10:47:24;;;;;;;20.57;11.47;;;5.10;99.90;;;;;;5083306;28;20182;-86
2022/12/09 10:49:52;;;;;;;19.20;12.13;;;5.10;99.90;;;;;;5082775;28;20170;-84
2022/12/09 10:52:27;;;;;;;16.93;10.63;;;5.00;99.90;;;;;;5081030;28;20262;-84
2022/12/09 10:54:53;;;;;;;18.07;11.17;;;5.10;99.90;;;;;;5079662;28;20198;-82
2022/12/09 10:57:29;;;;;;;18.40;11.60;;;5.00;99.90;;;;;;5078134;28;20175;-82
2022/12/09 11:00:29;;;;;;;18.67;11.80;;;5.00;99.90;;;;;;5079228;28;20196;-81
2022/12/09 11:02:55;;;;;;;18.67;11.83;;;5.00;99.90;;;;;;5019726;28;20207;-82
2022/12/09 11:05:26;;;;;;;19.17;12.07;;;5.00;99.90;;;;;;5020286;28;20307;-81
2022/12/09 11:07:53;;;;;;;19.53;11.40;;;5.00;99.90;;;;;;5019899;28;20177;-80
2022/12/09 11:10:22;;;;;;;20.00;12.43;;;4.90;99.90;;;;;;5037144;28;20181;-83
2022/12/09 11:13:06;;;;;;;19.30;12.27;;;4.90;99.90;;;;;;5038349;28;20220;-83
2022/12/09 11:15:41;;;;;;;18.33;11.73;;;5.00;99.90;;;;;;5037635;28;20177;-86
2022/12/09 11:18:36;;;;;;;18.87;12.67;;;5.00;99.90;;;;;;5065945;28;20197;-85
2022/12/09 11:21:05;;;;;;;20.70;13.07;;;5.10;99.90;;;;;;5067867;28;20196;-84
2022/12/09 11:23:32;;;;;;;19.27;12.83;;;5.10;99.90;;;;;;5059722;28;20202;-83
2022/12/09 11:26:02;;;;;;;19.17;12.33;;;5.00;99.90;;;;;;5057216;28;20181;-84
2022/12/09 11:28:34;;;;;;;19.97;12.70;;;5.10;99.90;;;;;;5055812;28;20168;-86
2022/12/09 11:31:06;;;;;;;20.27;13.20;;;5.10;99.90;;;;;;5055099;28;20182;-83
2022/12/09 11:33:34;;;;;;;17.63;11.90;;;5.00;99.90;;;;;;5059844;28;20230;-86
2022/12/09 11:36:08;;;;;;;23.30;12.60;;;5.00;99.90;;;;;;5062529;28;20168;-82
2022/12/09 11:38:42;;;;;;;21.87;12.80;;;5.00;99.90;;;;;;5091804;28;20197;-84
2022/12/09 11:41:12;;;;;;;18.50;12.30;;;5.00;99.90;;;;;;5122445;28;20209;-83
2022/12/09 11:43:40;;;;;;;17.53;11.17;;;5.10;99.90;;;;;;5122456;28;20194;-80
2022/12/09 11:46:28;;;;;;;21.03;12.33;;;5.10;99.90;;;;;;5119397;28;20625;-81
2022/12/09 11:49:04;;;;;;;18.50;12.70;;;5.20;99.90;;;;;;5110216;28;20186;-85
2022/12/09 11:51:34;;;;;;;19.17;12.67;;;5.20;99.90;;;;;;5122595;28;20171;-87
2022/12/09 11:54:28;;;;;;;18.27;13.47;;;5.30;99.90;;;;;;5122282;28;20184;-85
2022/12/09 11:56:56;;;;;;;23.63;13.60;;;5.30;99.90;;;;;;5110034;28;20216;-84
2022/12/09 11:59:31;;;;;;;18.60;12.23;;;5.40;99.90;;;;;;5114497;28;20282;-80
2022/12/09 12:02:12;;;;;;;20.23;12.23;;;5.40;99.90;;;;;;5115654;28;20225;-83
2022/12/09 12:04:50;;;;;;;23.03;12.67;;;5.40;99.90;;;;;;5115971;28;20657;-81
2022/12/09 12:08:05;;;;;;;18.57;12.33;;;5.30;99.90;;;;;;5115711;28;20159;-80
2022/12/09 12:11:00;;;;;;;18.23;11.97;;;5.30;99.90;;;;;;5117107;28;20181;-78
2022/12/09 12:13:56;;;;;;;21.83;12.90;;;5.30;99.90;;;;;;5111722;28;20671;-80
2022/12/09 12:16:30;;;;;;;20.47;13.30;;;5.30;99.90;;;;;;5078986;28;20204;-85
2022/12/09 12:19:24;;;;;;;18.03;12.20;;;5.40;99.90;;;;;;5087918;28;20219;-84
2022/12/09 12:22:32;;;;;;;18.57;12.83;;;5.40;99.90;;;;;;5091167;28;20220;-81
2022/12/09 12:25:20;;;;;;;21.27;14.07;;;5.40;99.90;;;;;;5080801;28;20248;-86
2022/12/09 12:28:06;;;;;;;18.10;12.53;;;5.40;99.90;;;;;;5076094;28;20164;-82
2022/12/09 12:30:53;;;;;;;18.10;12.23;;;5.40;99.90;;;;;;5075337;28;20173;-85
2022/12/09 12:34:00;;;;;;;20.70;13.03;;;5.50;99.90;;;;;;5074421;28;20164;-84
2022/12/09 12:36:45;;;;;;;17.17;12.10;;;5.50;99.90;;;;;;5074547;28;20237;-84
2022/12/09 12:39:23;;;;;;;20.13;12.00;;;5.50;99.90;;;;;;5075130;28;20192;-82
2022/12/09 12:42:05;;;;;;;16.17;11.40;;;5.50;99.90;;;;;;5073271;28;20210;-82
2022/12/09 12:48:06;;;;;;;19.97;13.03;;;5.40;99.90;;;;;;5076710;28;20184;-83
2022/12/09 12:51:15;;;;;;;20.40;13.10;;;5.60;99.90;;;;;;5075718;28;20260;-84
2022/12/09 12:53:54;;;;;;;21.57;13.97;;;5.80;99.90;;;;;;5077434;28;20156;-85
2022/12/09 12:56:31;;;;;;;22.53;13.20;;;5.80;99.90;;;;;;5075882;28;20161;-85
2022/12/09 12:58:59;;;;;;;18.77;12.53;;;5.70;99.90;;;;;;5079970;28;20172;-83
2022/12/09 13:01:50;;;;;;;18.80;12.40;;;5.60;99.90;;;;;;5079259;28;20220;-85
2022/12/09 13:04:41;;;;;;;19.90;13.47;;;5.60;99.90;;;;;;5075678;28;20244;-83
2022/12/09 13:07:14;;;;;;;20.23;13.13;;;5.50;99.90;;;;;;5072703;28;20205;-86